createdAt,value
2023-07-24T00:00:29.998Z,25.15
2023-07-24T00:02:57.949Z,25.11
2023-07-24T00:05:24.906Z,25.06
2023-07-24T00:07:51.978Z,25.04
2023-07-24T00:10:18.824Z,24.99
2023-07-24T00:12:45.660Z,24.95
2023-07-24T00:15:12.419Z,24.93
2023-07-24T00:17:39.278Z,24.91
2023-07-24T00:20:07.641Z,24.89
2023-07-24T00:22:34.366Z,24.88
2023-07-24T00:25:01.076Z,24.87
2023-07-24T00:27:28.974Z,24.88
2023-07-24T00:29:55.714Z,24.88
2023-07-24T00:32:22.493Z,24.91
2023-07-24T00:34:49.498Z,24.92
2023-07-24T00:37:16.559Z,24.93
2023-07-24T00:39:43.286Z,24.94
2023-07-24T00:42:10.047Z,24.94
2023-07-24T00:44:37.693Z,24.91
2023-07-24T00:47:05.849Z,24.88
2023-07-24T00:49:32.777Z,24.87
2023-07-24T00:51:59.666Z,24.86
2023-07-24T00:54:31.733Z,24.85
2023-07-24T00:56:58.399Z,24.81
2023-07-24T00:59:25.138Z,24.75
2023-07-24T01:01:52.640Z,24.69
2023-07-24T01:04:20.705Z,24.65
2023-07-24T01:06:47.841Z,24.62
2023-07-24T01:09:14.739Z,24.61
2023-07-24T01:12:25.106Z,24.60
2023-07-24T01:14:59.546Z,24.61
2023-07-24T01:17:30.295Z,24.63
2023-07-24T01:20:00.208Z,24.63
2023-07-24T01:22:30.185Z,24.64
2023-07-24T01:25:30.497Z,24.64
2023-07-24T01:27:57.291Z,24.62
2023-07-24T01:30:24.114Z,24.60
2023-07-24T01:32:51.049Z,24.59
2023-07-24T01:35:18.396Z,24.58
2023-07-24T01:37:48.113Z,24.58
2023-07-24T01:40:16.231Z,24.58
2023-07-24T01:42:43.618Z,24.59
2023-07-24T01:45:12.602Z,24.61
2023-07-24T01:47:40.005Z,24.61
2023-07-24T01:50:07.532Z,24.62
2023-07-24T01:52:34.442Z,24.61
2023-07-24T01:55:01.205Z,24.59
2023-07-24T01:57:28.029Z,24.59
2023-07-24T01:59:54.873Z,24.59
2023-07-24T02:02:21.928Z,24.61
2023-07-24T02:04:48.710Z,24.60
2023-07-24T02:07:15.489Z,24.59
2023-07-24T02:09:42.241Z,24.58
2023-07-24T02:12:09.126Z,24.59
2023-07-24T02:14:35.945Z,24.61
2023-07-24T02:17:02.658Z,24.60
2023-07-24T02:19:29.453Z,24.60
2023-07-24T02:21:56.179Z,24.59
2023-07-24T02:24:23.000Z,24.55
2023-07-24T02:26:50.757Z,24.50
2023-07-24T02:29:17.528Z,24.47
2023-07-24T02:31:44.299Z,24.46
2023-07-24T02:34:11.067Z,24.42
2023-07-24T02:36:42.537Z,24.38
2023-07-24T02:39:09.846Z,24.36
2023-07-24T02:41:36.662Z,24.34
2023-07-24T02:44:05.136Z,24.34
2023-07-24T02:46:32.615Z,24.33
2023-07-24T02:49:00.084Z,24.33
2023-07-24T02:51:26.897Z,24.33
2023-07-24T02:53:55.604Z,24.35
2023-07-24T02:56:23.182Z,24.33
2023-07-24T02:58:50.313Z,24.31
2023-07-24T03:01:17.260Z,24.27
2023-07-24T03:03:44.223Z,24.24
2023-07-24T03:06:11.012Z,24.21
2023-07-24T03:08:37.734Z,24.19
2023-07-24T03:11:08.563Z,24.18
2023-07-24T03:13:35.370Z,24.18
2023-07-24T03:16:02.130Z,24.18
2023-07-24T03:18:28.993Z,24.20
2023-07-24T03:20:58.261Z,24.23
2023-07-24T03:23:24.954Z,24.26
2023-07-24T03:25:51.707Z,24.29
2023-07-24T03:28:18.442Z,24.32
2023-07-24T03:30:45.363Z,24.35
2023-07-24T03:33:13.355Z,24.37
2023-07-24T03:35:40.519Z,24.38
2023-07-24T03:38:07.232Z,24.40
2023-07-24T03:40:34.054Z,24.42
2023-07-24T03:43:01.009Z,24.44
2023-07-24T03:45:27.823Z,24.45
2023-07-24T03:47:54.692Z,24.47
2023-07-24T03:50:21.465Z,24.49
2023-07-24T03:52:48.308Z,24.52
2023-07-24T03:55:15.149Z,24.55
2023-07-24T03:57:41.900Z,24.57
2023-07-24T04:00:09.341Z,24.59
2023-07-24T04:02:42.046Z,24.62
2023-07-24T04:05:09.121Z,24.64
2023-07-24T04:07:36.005Z,24.65
2023-07-24T04:10:02.987Z,24.65
2023-07-24T04:12:30.796Z,24.64
2023-07-24T04:14:57.607Z,24.63
2023-07-24T04:17:24.619Z,24.63
2023-07-24T04:19:51.580Z,24.62
2023-07-24T04:22:18.351Z,24.60
2023-07-24T04:24:45.075Z,24.60
2023-07-24T04:27:11.830Z,24.58
2023-07-24T04:29:38.652Z,24.58
2023-07-24T04:32:05.477Z,24.59
2023-07-24T04:34:34.252Z,24.60
2023-07-24T04:37:01.094Z,24.61
2023-07-24T04:39:27.827Z,24.62
2023-07-24T04:41:54.603Z,24.62
2023-07-24T04:44:21.364Z,24.63
2023-07-24T04:46:48.117Z,24.63
2023-07-24T04:49:14.839Z,24.63
2023-07-24T04:51:41.664Z,24.63
2023-07-24T04:54:08.519Z,24.63
2023-07-24T04:56:35.309Z,24.63
2023-07-24T04:59:02.051Z,24.64
2023-07-24T05:01:28.924Z,24.66
2023-07-24T05:03:55.666Z,24.70
2023-07-24T05:06:22.866Z,24.75
2023-07-24T05:08:49.877Z,24.80
2023-07-24T05:11:16.830Z,24.85
2023-07-24T05:13:43.569Z,24.89
2023-07-24T05:16:10.378Z,24.93
2023-07-24T05:18:39.199Z,24.96
2023-07-24T05:21:07.453Z,24.98
2023-07-24T05:23:34.348Z,24.99
2023-07-24T05:26:03.159Z,24.99
2023-07-24T05:28:31.924Z,24.97
2023-07-24T05:31:05.929Z,24.96
2023-07-24T05:33:33.558Z,24.99
2023-07-24T05:36:05.006Z,25.04
2023-07-24T05:38:32.072Z,25.05
2023-07-24T05:41:03.878Z,25.05
2023-07-24T05:43:32.312Z,25.08
2023-07-24T05:45:59.715Z,25.12
2023-07-24T05:48:26.649Z,25.18
2023-07-24T05:50:53.810Z,25.22
2023-07-24T05:53:20.750Z,25.27
2023-07-24T05:55:47.495Z,25.32
2023-07-24T05:58:14.313Z,25.37
2023-07-24T06:00:40.978Z,25.42
2023-07-24T06:03:08.965Z,25.47
2023-07-24T06:05:36.267Z,25.52
2023-07-24T06:08:03.168Z,25.53
2023-07-24T06:10:30.099Z,25.48
2023-07-24T06:12:57.075Z,25.45
2023-07-24T06:15:24.000Z,25.45
2023-07-24T06:17:53.570Z,25.51
2023-07-24T06:20:21.975Z,25.58
2023-07-24T06:22:48.965Z,25.69
2023-07-24T06:25:15.836Z,25.83
2023-07-24T06:27:42.582Z,25.98
2023-07-24T06:30:15.812Z,26.11
2023-07-24T06:32:44.586Z,26.25
2023-07-24T06:35:11.485Z,26.33
2023-07-24T06:37:38.325Z,26.38
2023-07-24T06:40:06.295Z,26.43
2023-07-24T06:42:33.245Z,26.49
2023-07-24T06:45:00.277Z,26.64
2023-07-24T06:47:27.418Z,26.81
2023-07-24T06:49:54.547Z,27.06
2023-07-24T06:52:21.789Z,27.34
2023-07-24T06:54:48.716Z,27.62
2023-07-24T06:57:15.936Z,27.94
2023-07-24T06:59:42.840Z,28.27
2023-07-24T07:02:09.929Z,28.52
2023-07-24T07:04:36.834Z,28.73
2023-07-24T07:07:04.137Z,28.88
2023-07-24T07:09:31.399Z,28.98
2023-07-24T07:11:58.812Z,28.98
2023-07-24T07:14:25.936Z,28.98
2023-07-24T07:16:52.672Z,28.94
2023-07-24T07:19:19.458Z,28.91
2023-07-24T07:21:46.144Z,28.88
2023-07-24T07:24:13.060Z,28.94
2023-07-24T07:26:39.857Z,29.03
2023-07-24T07:29:06.742Z,29.22
2023-07-24T07:31:33.731Z,29.29
2023-07-24T07:34:00.552Z,29.23
2023-07-24T07:36:27.737Z,29.08
2023-07-24T07:38:54.900Z,28.90
2023-07-24T07:41:21.885Z,28.77
2023-07-24T07:43:48.700Z,28.66
2023-07-24T07:46:15.566Z,28.73
2023-07-24T07:48:42.314Z,28.96
2023-07-24T07:51:09.133Z,29.20
2023-07-24T07:53:35.834Z,29.47
2023-07-24T07:56:02.958Z,29.68
2023-07-24T07:58:29.833Z,29.79
2023-07-24T08:00:56.857Z,29.76
2023-07-24T08:03:24.062Z,29.67
2023-07-24T08:05:50.925Z,29.63
2023-07-24T08:08:17.698Z,29.63
2023-07-24T08:10:44.524Z,29.60
2023-07-24T08:13:11.633Z,29.61
2023-07-24T08:15:39.168Z,29.53
2023-07-24T08:18:06.809Z,29.43
2023-07-24T08:20:37.490Z,29.31
2023-07-24T08:23:04.614Z,29.25
2023-07-24T08:25:31.729Z,29.20
2023-07-24T08:28:05.238Z,29.38
2023-07-24T08:30:35.728Z,29.61
2023-07-24T08:33:02.902Z,29.98
2023-07-24T08:35:30.239Z,30.30
2023-07-24T08:37:57.391Z,30.34
2023-07-24T08:40:24.299Z,30.23
2023-07-24T08:42:54.439Z,30.03
2023-07-24T08:45:21.515Z,29.89
2023-07-24T08:47:49.846Z,29.95
2023-07-24T08:50:18.409Z,30.14
2023-07-24T08:52:46.168Z,30.22
2023-07-24T08:55:13.281Z,30.16
2023-07-24T08:57:40.036Z,30.13
2023-07-24T09:00:07.472Z,30.11
2023-07-24T09:02:36.214Z,30.08
2023-07-24T09:05:04.626Z,30.06
2023-07-24T09:07:32.331Z,30.06
2023-07-24T09:09:59.306Z,30.08
2023-07-24T09:12:26.075Z,30.15
2023-07-24T09:15:04.304Z,30.22
2023-07-24T09:17:31.081Z,30.33
2023-07-24T09:19:58.978Z,30.40
2023-07-24T09:22:27.955Z,30.52
2023-07-24T09:24:57.213Z,30.53
2023-07-24T09:27:30.128Z,30.81
2023-07-24T09:29:59.288Z,31.07
2023-07-24T09:32:27.988Z,31.20
2023-07-24T09:34:55.705Z,31.26
2023-07-24T09:37:27.291Z,31.26
2023-07-24T09:39:54.447Z,31.30
2023-07-24T09:42:31.883Z,31.25
2023-07-24T09:44:58.846Z,31.20
2023-07-24T09:47:32.814Z,31.22
2023-07-24T09:50:13.039Z,31.22
2023-07-24T09:52:43.045Z,31.15
2023-07-24T09:55:32.737Z,30.98
2023-07-24T09:58:01.690Z,30.87
2023-07-24T10:00:28.825Z,30.86
2023-07-24T10:02:56.659Z,30.91
2023-07-24T10:05:24.228Z,31.04
2023-07-24T10:07:52.635Z,31.18
2023-07-24T10:10:19.585Z,31.35
2023-07-24T10:12:46.749Z,31.49
2023-07-24T10:15:14.468Z,31.52
2023-07-24T10:17:43.384Z,31.59
2023-07-24T10:20:13.058Z,31.65
2023-07-24T10:22:44.314Z,31.69
2023-07-24T10:25:11.973Z,31.70
2023-07-24T10:27:47.507Z,31.64
2023-07-24T10:30:28.256Z,31.56
2023-07-24T10:33:08.439Z,31.55
2023-07-24T10:35:44.413Z,31.53
2023-07-24T10:38:17.415Z,31.43
2023-07-24T10:40:47.034Z,31.28
2023-07-24T10:43:18.696Z,31.19
2023-07-24T10:45:55.479Z,31.12
2023-07-24T10:48:27.006Z,31.03
2023-07-24T10:50:55.128Z,30.94
2023-07-24T10:53:24.052Z,30.84
2023-07-24T10:55:52.663Z,30.78
2023-07-24T10:58:19.500Z,30.68
2023-07-24T11:00:47.942Z,30.60
2023-07-24T11:03:15.958Z,30.58
2023-07-24T11:05:44.376Z,30.66
2023-07-24T11:08:18.691Z,30.85
2023-07-24T11:10:57.810Z,31.13
2023-07-24T11:13:27.096Z,31.44
2023-07-24T11:15:55.011Z,31.51
2023-07-24T11:18:23.673Z,31.50
2023-07-24T11:20:53.056Z,31.38
2023-07-24T11:23:20.309Z,31.23
2023-07-24T11:25:47.895Z,31.08
2023-07-24T11:28:16.093Z,30.89
2023-07-24T11:30:44.629Z,30.69
2023-07-24T11:33:16.142Z,30.49
2023-07-24T11:35:44.702Z,30.28
2023-07-24T11:38:12.019Z,30.19
2023-07-24T11:40:42.226Z,30.18
2023-07-24T11:43:19.829Z,30.29
2023-07-24T11:45:50.180Z,30.43
2023-07-24T11:48:17.101Z,30.52
2023-07-24T11:50:48.774Z,30.58
2023-07-24T11:53:23.346Z,30.60
2023-07-24T11:55:52.100Z,30.63
2023-07-24T11:58:19.471Z,30.65
2023-07-24T12:00:48.400Z,30.69
2023-07-24T12:03:20.996Z,30.75
2023-07-24T12:05:50.427Z,30.85
2023-07-24T12:08:21.255Z,30.98
2023-07-24T12:10:47.990Z,31.17
2023-07-24T12:13:14.670Z,31.35
2023-07-24T12:15:41.450Z,31.49
2023-07-24T12:18:08.634Z,31.63
2023-07-24T12:20:35.929Z,31.95
2023-07-24T12:23:02.969Z,32.22
2023-07-24T12:25:29.866Z,32.32
2023-07-24T12:27:56.577Z,32.34
2023-07-24T12:30:23.434Z,32.35
2023-07-24T12:32:50.342Z,32.39
2023-07-24T12:35:18.728Z,32.37
2023-07-24T12:37:46.986Z,32.34
2023-07-24T12:40:14.690Z,32.30
2023-07-24T12:42:41.515Z,32.36
2023-07-24T12:45:08.565Z,32.39
2023-07-24T12:47:35.316Z,32.34
2023-07-24T12:50:02.476Z,32.24
2023-07-24T12:52:30.513Z,32.09
2023-07-24T12:55:02.328Z,31.89
2023-07-24T12:57:30.141Z,31.73
2023-07-24T12:59:56.905Z,31.63
2023-07-24T13:02:23.759Z,31.53
2023-07-24T13:04:50.426Z,31.43
2023-07-24T13:07:17.377Z,31.36
2023-07-24T13:09:45.532Z,31.29
2023-07-24T13:12:12.262Z,31.21
2023-07-24T13:14:41.181Z,31.13
2023-07-24T13:17:12.139Z,31.07
2023-07-24T13:19:39.021Z,31.01
2023-07-24T13:22:06.165Z,30.90
2023-07-24T13:24:33.492Z,30.80
2023-07-24T13:27:00.302Z,30.70
2023-07-24T13:29:27.088Z,30.59
2023-07-24T13:31:54.113Z,30.46
2023-07-24T13:34:21.469Z,30.31
2023-07-24T13:36:48.684Z,30.19
2023-07-24T13:39:15.635Z,30.11
2023-07-24T13:41:43.062Z,30.20
2023-07-24T13:44:11.405Z,30.39
2023-07-24T13:46:40.424Z,30.67
2023-07-24T13:49:08.618Z,30.86
2023-07-24T13:51:35.505Z,30.96
2023-07-24T13:54:03.529Z,30.93
2023-07-24T13:56:32.404Z,30.85
2023-07-24T13:58:59.465Z,30.66
2023-07-24T14:01:26.623Z,30.26
2023-07-24T14:03:53.859Z,29.88
2023-07-24T14:06:20.826Z,29.63
2023-07-24T14:08:47.577Z,29.52
2023-07-24T14:11:14.419Z,29.52
2023-07-24T14:13:41.163Z,29.41
2023-07-24T14:16:07.963Z,29.36
2023-07-24T14:18:34.761Z,29.55
2023-07-24T14:21:02.110Z,29.76
2023-07-24T14:23:28.881Z,29.88
2023-07-24T14:25:55.537Z,29.94
2023-07-24T14:28:22.183Z,29.99
2023-07-24T14:30:48.865Z,29.92
2023-07-24T14:33:15.644Z,29.86
2023-07-24T14:35:42.364Z,29.83
2023-07-24T14:38:09.086Z,30.01
2023-07-24T14:40:35.839Z,30.20
2023-07-24T14:43:05.575Z,30.36
2023-07-24T14:45:34.598Z,30.53
2023-07-24T14:48:01.420Z,30.70
2023-07-24T14:50:28.302Z,30.89
2023-07-24T14:52:55.032Z,31.10
2023-07-24T14:55:21.895Z,31.24
2023-07-24T14:57:49.010Z,31.38
2023-07-24T15:00:17.484Z,31.45
2023-07-24T15:02:44.845Z,31.52
2023-07-24T15:05:11.966Z,31.57
2023-07-24T15:07:39.137Z,31.62
2023-07-24T15:10:06.974Z,31.63
2023-07-24T15:12:33.832Z,31.66
2023-07-24T15:15:00.751Z,31.70
2023-07-24T15:17:27.717Z,31.72
2023-07-24T15:19:54.858Z,31.66
2023-07-24T15:22:21.582Z,31.60
2023-07-24T15:24:48.461Z,31.56
2023-07-24T15:27:15.600Z,31.54
2023-07-24T15:29:42.342Z,31.49
2023-07-24T15:32:09.287Z,31.43
2023-07-24T15:34:39.357Z,31.40
2023-07-24T15:37:07.135Z,31.35
2023-07-24T15:39:33.863Z,31.34
2023-07-24T15:42:00.610Z,31.30
2023-07-24T15:44:27.313Z,31.27
2023-07-24T15:46:54.057Z,31.26
2023-07-24T15:49:20.853Z,31.27
2023-07-24T15:51:47.667Z,31.29
2023-07-24T15:54:14.355Z,31.27
2023-07-24T15:56:41.388Z,31.23
2023-07-24T15:59:10.164Z,31.22
2023-07-24T16:01:36.874Z,31.20
2023-07-24T16:04:03.648Z,31.17
2023-07-24T16:06:30.596Z,31.15
2023-07-24T16:08:57.362Z,31.14
2023-07-24T16:11:24.317Z,31.14
2023-07-24T16:13:51.029Z,31.08
2023-07-24T16:16:17.761Z,31.02
2023-07-24T16:18:44.880Z,30.95
2023-07-24T16:21:11.549Z,30.91
2023-07-24T16:23:38.422Z,30.91
2023-07-24T16:26:05.216Z,30.89
2023-07-24T16:28:31.980Z,30.87
2023-07-24T16:30:59.182Z,30.85
2023-07-24T16:33:26.439Z,30.85
2023-07-24T16:35:53.474Z,30.87
2023-07-24T16:38:20.277Z,30.86
2023-07-24T16:40:47.000Z,30.80
2023-07-24T16:43:13.683Z,30.75
2023-07-24T16:45:40.384Z,30.72
2023-07-24T16:48:07.360Z,30.68
2023-07-24T16:50:36.620Z,30.63
2023-07-24T16:53:04.744Z,30.60
2023-07-24T16:55:31.554Z,30.55
2023-07-24T16:57:58.313Z,30.50
2023-07-24T17:00:25.084Z,30.46
2023-07-24T17:02:52.055Z,30.44
2023-07-24T17:05:19.056Z,30.39
2023-07-24T17:07:45.992Z,30.35
2023-07-24T17:10:12.937Z,30.32
2023-07-24T17:12:39.672Z,30.28
2023-07-24T17:15:07.956Z,30.22
2023-07-24T17:17:34.732Z,30.17
2023-07-24T17:20:01.409Z,30.13
2023-07-24T17:22:28.098Z,30.10
2023-07-24T17:24:54.899Z,30.05
2023-07-24T17:27:23.076Z,30.00
2023-07-24T17:29:49.940Z,29.95
2023-07-24T17:32:20.273Z,29.92
2023-07-24T17:34:46.978Z,29.87
2023-07-24T17:37:21.235Z,29.85
2023-07-24T17:39:55.519Z,29.82
2023-07-24T17:42:22.360Z,29.80
2023-07-24T17:44:49.225Z,29.78
2023-07-24T17:47:16.037Z,29.73
2023-07-24T17:49:47.610Z,29.68
2023-07-24T17:52:25.122Z,29.66
2023-07-24T17:54:51.781Z,29.65
2023-07-24T17:57:18.547Z,29.63
2023-07-24T17:59:45.357Z,29.61
2023-07-24T18:02:12.362Z,29.60
2023-07-24T18:04:39.498Z,29.60
2023-07-24T18:07:06.351Z,29.57
2023-07-24T18:09:33.093Z,29.54
2023-07-24T18:11:59.844Z,29.49
2023-07-24T18:14:26.539Z,29.44
2023-07-24T18:16:53.291Z,29.38
2023-07-24T18:19:20.099Z,29.33
2023-07-24T18:21:46.849Z,29.28
2023-07-24T18:24:13.881Z,29.24
2023-07-24T18:26:40.890Z,29.19
2023-07-24T18:29:07.543Z,29.12
2023-07-24T18:31:34.749Z,29.02
2023-07-24T18:34:01.601Z,28.93
2023-07-24T18:36:28.329Z,28.89
2023-07-24T18:38:55.226Z,28.86
2023-07-24T18:41:21.891Z,28.78
2023-07-24T18:43:48.825Z,28.70
2023-07-24T18:46:18.033Z,28.65
2023-07-24T18:48:44.875Z,28.63
2023-07-24T18:51:12.031Z,28.59
2023-07-24T18:53:38.752Z,28.57
2023-07-24T18:56:05.905Z,28.56
2023-07-24T18:58:32.551Z,28.54
2023-07-24T19:00:59.285Z,28.48
2023-07-24T19:03:26.623Z,28.46
2023-07-24T19:05:54.193Z,28.44
2023-07-24T19:08:21.218Z,28.42
2023-07-24T19:10:47.902Z,28.40
2023-07-24T19:13:14.585Z,28.37
2023-07-24T19:15:41.249Z,28.33
2023-07-24T19:18:07.955Z,28.31
2023-07-24T19:20:34.673Z,28.29
2023-07-24T19:23:03.671Z,28.26
2023-07-24T19:25:31.677Z,28.21
2023-07-24T19:27:58.749Z,28.18
2023-07-24T19:30:25.530Z,28.15
2023-07-24T19:32:52.528Z,28.14
2023-07-24T19:35:20.697Z,28.10
2023-07-24T19:37:47.646Z,28.09
2023-07-24T19:40:14.500Z,28.06
2023-07-24T19:42:41.145Z,28.06
2023-07-24T19:45:08.497Z,28.05
2023-07-24T19:47:35.275Z,28.06
2023-07-24T19:50:04.365Z,28.06
2023-07-24T19:52:32.690Z,28.09
2023-07-24T19:54:59.479Z,28.12
2023-07-24T19:57:26.589Z,28.14
2023-07-24T19:59:53.529Z,28.16
2023-07-24T20:02:20.179Z,28.18
2023-07-24T20:04:46.851Z,28.20
2023-07-24T20:07:13.896Z,28.22
2023-07-24T20:09:40.581Z,28.23
2023-07-24T20:12:08.055Z,28.24
2023-07-24T20:14:35.305Z,28.25
2023-07-24T20:17:02.231Z,28.26
2023-07-24T20:19:29.029Z,28.26
2023-07-24T20:21:55.733Z,28.26
2023-07-24T20:24:22.712Z,28.25
2023-07-24T20:26:49.430Z,28.24
2023-07-24T20:29:16.081Z,28.22
2023-07-24T20:31:42.971Z,28.21
2023-07-24T20:34:10.696Z,28.21
2023-07-24T20:36:37.463Z,28.21
2023-07-24T20:39:04.227Z,28.19
2023-07-24T20:41:31.175Z,28.16
2023-07-24T20:43:58.180Z,28.14
2023-07-24T20:46:25.001Z,28.12
2023-07-24T20:48:51.721Z,28.11
2023-07-24T20:51:24.303Z,28.07
2023-07-24T20:53:52.351Z,28.01
2023-07-24T20:56:22.650Z,27.95
2023-07-24T20:58:49.463Z,27.89
2023-07-24T21:01:16.295Z,27.84
2023-07-24T21:03:43.640Z,27.83
2023-07-24T21:06:10.423Z,27.80
2023-07-24T21:08:37.349Z,27.56
2023-07-24T21:11:04.076Z,26.76
2023-07-24T21:13:30.800Z,26.07
2023-07-24T21:15:57.448Z,25.68
2023-07-24T21:18:24.319Z,25.49
2023-07-24T21:20:51.020Z,25.39
2023-07-24T21:23:17.858Z,25.26
2023-07-24T21:25:55.427Z,25.21
2023-07-24T21:28:23.375Z,25.21
2023-07-24T21:30:50.393Z,25.22
2023-07-24T21:33:18.313Z,25.26
2023-07-24T21:35:45.049Z,25.28
2023-07-24T21:38:13.305Z,25.31
2023-07-24T21:40:41.138Z,25.33
2023-07-24T21:43:08.859Z,25.30
2023-07-24T21:45:35.952Z,25.16
2023-07-24T21:48:05.983Z,24.96
2023-07-24T21:50:33.182Z,24.83
2023-07-24T21:53:00.500Z,24.72
2023-07-24T21:55:27.329Z,24.62
2023-07-24T21:57:56.133Z,24.58
2023-07-24T22:00:23.055Z,24.56
2023-07-24T22:02:49.816Z,24.55
2023-07-24T22:05:16.886Z,24.53
2023-07-24T22:07:44.115Z,24.52
2023-07-24T22:10:11.060Z,24.50
2023-07-24T22:12:37.805Z,24.53
2023-07-24T22:15:04.920Z,24.57
2023-07-24T22:17:32.102Z,24.58
2023-07-24T22:19:58.845Z,24.60
2023-07-24T22:22:25.668Z,24.63
2023-07-24T22:24:52.524Z,24.66
2023-07-24T22:27:19.564Z,24.70
2023-07-24T22:29:46.407Z,24.73
2023-07-24T22:32:13.345Z,24.74
2023-07-24T22:34:40.056Z,24.75
2023-07-24T22:37:08.013Z,24.74
2023-07-24T22:39:35.938Z,24.71
2023-07-24T22:42:02.718Z,24.68
2023-07-24T22:44:29.684Z,24.62
2023-07-24T22:46:56.903Z,24.58
2023-07-24T22:49:24.324Z,24.55
2023-07-24T22:51:51.164Z,24.52
2023-07-24T22:54:17.861Z,24.48
2023-07-24T22:56:44.980Z,24.45
2023-07-24T22:59:28.706Z,24.43
2023-07-24T23:01:58.221Z,24.40
2023-07-24T23:04:26.438Z,24.39
2023-07-24T23:06:55.657Z,24.35
2023-07-24T23:09:23.481Z,24.29
2023-07-24T23:11:50.604Z,24.20
2023-07-24T23:14:17.370Z,24.10
2023-07-24T23:16:44.321Z,24.00
2023-07-24T23:19:11.140Z,23.93
2023-07-24T23:21:37.981Z,23.84
2023-07-24T23:24:05.379Z,23.80
2023-07-24T23:26:32.271Z,23.79
2023-07-24T23:28:59.754Z,23.81
2023-07-24T23:31:26.534Z,23.77
2023-07-24T23:33:53.348Z,23.72
2023-07-24T23:36:20.098Z,23.74
2023-07-24T23:38:47.024Z,23.76
2023-07-24T23:41:14.109Z,23.75
2023-07-24T23:43:40.928Z,23.72
2023-07-24T23:46:15.782Z,23.73
2023-07-24T23:48:43.935Z,23.75
2023-07-24T23:51:15.859Z,23.77
2023-07-24T23:53:43.447Z,23.77
2023-07-24T23:56:10.563Z,23.77
2023-07-24T23:58:37.336Z,23.76
